Time;durP1;ratioP1;P1;durP2;ratioP2;P2;SDS_P1;SDS_P2;PMS_P1;PMS_P2;Temp;Humidity;BMP_temperature;BMP_pressure;BME280_temperature;BME280_humidity;BME280_pressure;Samples;Min_cycle;Max_cycle;Signal;HPM_P1;HPM_P2
2021/09/26 00:01:19;;;;;;;9.50;6.88;;;18.40;74.10;;;17.28;76.74;96185.22;4959323;28;20577;-65
2021/09/26 00:03:44;;;;;;;8.45;7.20;;;18.30;74.20;;;17.25;77.21;96191.81;4986351;28;20085;-65
2021/09/26 00:06:10;;;;;;;9.20;7.15;;;18.30;74.60;;;17.24;76.81;96192.03;4991344;28;20161;-65
2021/09/26 00:08:36;;;;;;;9.13;6.85;;;18.30;74.40;;;17.26;76.60;96187.28;4964011;28;20038;-64
2021/09/26 00:11:05;;;;;;;7.55;6.68;;;18.30;74.60;;;17.26;77.16;96184.63;4995086;28;20539;-64
2021/09/26 00:13:37;;;;;;;7.72;6.93;;;18.40;74.60;;;17.26;78.32;96187.28;4990391;28;20073;-64
2021/09/26 00:16:03;;;;;;;8.55;7.00;;;18.40;74.70;;;17.26;77.97;96198.72;4988366;28;20473;-65
2021/09/26 00:18:29;;;;;;;8.77;6.93;;;18.30;74.80;;;17.23;77.73;96196.53;4988624;28;20038;-65
2021/09/26 00:20:55;;;;;;;7.85;6.13;;;18.40;74.90;;;17.23;78.37;96190.41;4989275;28;20026;-65
2021/09/26 00:23:21;;;;;;;8.27;6.80;;;18.30;74.90;;;17.23;77.91;96193.88;4971616;28;20062;-64
2021/09/26 00:25:47;;;;;;;7.90;6.53;;;18.30;74.90;;;17.21;78.21;96187.16;4972564;28;20038;-64
2021/09/26 00:28:14;;;;;;;10.77;7.13;;;18.30;75.10;;;17.20;78.15;96188.19;4979868;28;20044;-64
2021/09/26 00:30:40;;;;;;;8.70;6.97;;;18.30;75.30;;;17.19;77.92;96187.38;4974161;28;20200;-65
2021/09/26 00:33:05;;;;;;;11.60;7.70;;;18.20;75.40;;;17.18;78.89;96198.22;4973921;28;20501;-64
2021/09/26 00:35:31;;;;;;;9.27;7.40;;;18.20;75.60;;;17.19;78.22;96203.31;4971186;28;20043;-64
2021/09/26 00:37:57;;;;;;;8.98;8.07;;;18.30;75.40;;;17.19;78.49;96213.16;4964260;28;20035;-64
2021/09/26 00:40:23;;;;;;;10.63;7.65;;;18.20;75.20;;;17.14;78.23;96214.63;4954441;28;20537;-65
2021/09/26 00:42:49;;;;;;;13.15;8.90;;;18.10;75.50;;;17.10;78.53;96213.47;4987222;28;20618;-65
2021/09/26 00:45:14;;;;;;;9.60;8.60;;;18.10;75.70;;;17.07;78.69;96205.97;4973726;28;20516;-65
2021/09/26 00:47:40;;;;;;;11.18;9.13;;;18.00;75.90;;;17.06;78.68;96214.16;4988928;28;20058;-65
2021/09/26 00:50:07;;;;;;;10.50;8.60;;;18.10;76.10;;;17.03;78.85;96199.50;4976098;28;20049;-65
2021/09/26 00:52:33;;;;;;;12.73;9.23;;;18.10;76.20;;;17.02;79.67;96213.81;4961331;28;20026;-65
2021/09/26 00:54:58;;;;;;;12.80;9.05;;;18.10;76.10;;;17.01;79.86;96217.50;4973758;28;20039;-64
2021/09/26 00:57:24;;;;;;;14.63;9.50;;;18.10;76.50;;;16.99;79.39;96208.97;4988748;28;20030;-66
2021/09/26 00:59:50;;;;;;;10.52;9.02;;;18.10;76.30;;;16.99;79.69;96200.97;4952348;28;20556;-65
2021/09/26 01:02:16;;;;;;;13.13;9.55;;;18.10;76.50;;;17.00;80.29;96199.13;4985500;28;20030;-65
2021/09/26 01:04:42;;;;;;;10.18;9.15;;;18.20;76.50;;;17.00;80.16;96202.59;4938828;28;20382;-65
2021/09/26 01:07:34;;;;;;;10.93;9.23;;;18.10;76.50;;;17.03;81.07;96201.34;4951114;28;20092;-65
2021/09/26 01:10:05;;;;;;;12.73;9.85;;;18.20;76.60;;;17.02;80.65;96200.53;4953325;28;20081;-65
2021/09/26 01:12:51;;;;;;;12.73;9.98;;;18.20;76.40;;;17.03;81.36;96204.81;4976608;28;20091;-65
2021/09/26 01:15:55;;;;;;;11.88;9.85;;;18.20;76.30;;;17.04;81.75;96211.75;4943192;28;21862;-65
2021/09/26 01:18:39;;;;;;;12.90;10.13;;;18.20;76.60;;;17.05;81.13;96208.03;4954896;28;20383;-65
2021/09/26 01:21:49;;;;;;;13.25;9.93;;;18.20;76.70;;;17.07;81.23;96216.59;4992341;28;20057;-64
2021/09/26 01:24:29;;;;;;;15.63;11.48;;;18.20;76.70;;;17.04;81.13;96211.75;4986592;28;20026;-65
2021/09/26 01:27:14;;;;;;;;;;;18.20;76.70;;;17.01;81.41;96214.84;4962789;28;20030;-65
2021/09/26 01:30:36;;;;;;;14.52;10.55;;;18.20;76.80;;;17.01;81.82;96209.53;4984901;28;20334;-64
2021/09/26 01:33:20;;;;;;;13.43;11.77;;;18.20;76.80;;;16.97;81.61;96203.03;4987174;28;20442;-63
2021/09/26 01:36:29;;;;;;;12.73;11.43;;;18.10;76.80;;;16.97;82.33;96200.38;4957602;28;20030;-65
2021/09/26 01:39:05;;;;;;;16.45;11.02;;;18.10;76.90;;;16.97;81.63;96210.19;4986864;28;20034;-64
2021/09/26 01:42:01;;;;;;;12.43;10.15;;;18.20;77.00;;;17.00;82.04;96215.06;4981322;28;20084;-65
2021/09/26 01:44:51;;;;;;;13.90;10.80;;;18.10;77.00;;;17.01;81.94;96212.19;4993786;28;20034;-64
2021/09/26 01:47:19;;;;;;;11.85;10.15;;;18.20;77.00;;;17.00;80.96;96212.41;4989930;28;20117;-65
2021/09/26 01:49:49;;;;;;;13.50;10.88;;;18.20;77.20;;;17.01;81.57;96227.31;4954478;28;20117;-65
2021/09/26 01:52:20;;;;;;;11.95;10.48;;;18.20;77.40;;;17.00;82.76;96223.84;4941265;28;20034;-65
2021/09/26 01:54:47;;;;;;;12.55;10.85;;;18.20;77.40;;;17.01;81.83;96230.78;4971331;28;20421;-65
2021/09/26 01:57:19;;;;;;;13.27;10.52;;;18.10;77.60;;;17.01;81.28;96225.47;4992365;28;20141;-64
2021/09/26 01:59:52;;;;;;;13.45;10.73;;;18.10;77.60;;;16.99;82.11;96224.91;4960026;28;20477;-65
2021/09/26 02:02:18;;;;;;;11.88;10.57;;;18.10;77.70;;;16.99;81.92;96216.94;4954073;28;20035;-65
2021/09/26 02:04:54;;;;;;;15.32;11.25;;;18.20;77.70;;;16.98;82.62;96212.66;4970922;28;20031;-65
2021/09/26 02:07:19;;;;;;;14.57;11.50;;;18.10;77.70;;;16.97;82.98;96211.00;4972298;28;20434;-65
2021/09/26 02:09:46;;;;;;;13.80;11.98;;;18.20;77.70;;;16.96;82.66;96219.19;4954607;28;20117;-65
2021/09/26 02:12:12;;;;;;;13.88;11.32;;;18.10;77.80;;;16.98;82.56;96214.50;4958246;28;20122;-65
2021/09/26 02:14:40;;;;;;;12.85;11.43;;;18.10;78.00;;;16.96;81.89;96213.88;4952380;28;20031;-65
2021/09/26 02:17:06;;;;;;;15.55;11.55;;;18.10;77.80;;;16.98;82.69;96212.66;4952364;28;20045;-65
2021/09/26 02:19:32;;;;;;;16.95;11.85;;;18.20;77.80;;;16.99;82.42;96208.97;4953943;28;20023;-65
2021/09/26 02:21:57;;;;;;;16.50;11.43;;;18.20;78.00;;;16.99;83.20;96202.84;4954904;28;20676;-65
2021/09/26 02:24:23;;;;;;;13.93;10.65;;;18.20;77.90;;;16.97;82.52;96200.38;4961498;28;20034;-65
2021/09/26 02:26:49;;;;;;;14.80;11.80;;;18.20;77.80;;;16.98;82.92;96206.53;4972770;28;20115;-65
2021/09/26 02:29:14;;;;;;;13.43;10.90;;;18.20;77.80;;;16.97;82.79;96216.31;4957079;28;20450;-64
2021/09/26 02:31:40;;;;;;;14.93;11.50;;;18.20;77.80;;;16.97;83.01;96218.97;4986488;28;20514;-64
2021/09/26 02:34:06;;;;;;;13.55;11.30;;;18.10;77.90;;;16.97;82.55;96221.63;4987312;28;20549;-65
2021/09/26 02:36:32;;;;;;;16.05;11.23;;;18.20;78.00;;;16.99;82.75;96214.28;4973231;28;20031;-65
2021/09/26 02:38:57;;;;;;;15.13;10.82;;;18.20;77.80;;;16.97;82.91;96216.31;4976665;28;20041;-65
2021/09/26 02:41:55;;;;;;;12.27;10.88;;;18.20;77.80;;;16.98;84.04;96203.88;4969917;28;20038;-64
2021/09/26 02:44:35;;;;;;;13.32;10.48;;;18.30;78.00;;;16.99;83.86;96208.97;4995360;28;20558;-65
2021/09/26 02:47:11;;;;;;;13.23;10.85;;;18.20;78.00;;;16.99;84.15;96213.47;4964298;28;20038;-65
2021/09/26 02:49:36;;;;;;;13.25;10.38;;;18.20;78.50;;;16.99;83.62;96214.28;4958448;28;20042;-65
2021/09/26 02:52:06;;;;;;;12.32;9.95;;;18.20;78.60;;;16.97;84.02;96203.03;4969474;28;20039;-64
2021/09/26 02:54:35;;;;;;;13.23;10.02;;;18.10;78.80;;;16.94;84.12;96211.44;4972260;28;20038;-65
2021/09/26 02:57:00;;;;;;;12.63;9.80;;;18.10;78.90;;;16.95;83.56;96206.94;4959927;28;20041;-64
2021/09/26 02:59:26;;;;;;;11.43;9.27;;;18.10;78.70;;;16.92;83.66;96213.53;4994947;28;21745;-65
2021/09/26 03:01:53;;;;;;;12.52;9.63;;;18.10;78.80;;;16.91;83.79;96211.09;4953731;28;20565;-65
2021/09/26 03:04:18;;;;;;;11.77;9.23;;;18.10;79.00;;;16.89;83.79;96208.66;4953365;28;20113;-65
2021/09/26 03:06:44;;;;;;;11.30;9.05;;;18.10;79.00;;;16.86;84.12;96198.50;4975356;28;20033;-65
2021/09/26 03:09:12;;;;;;;11.85;9.05;;;18.10;79.10;;;16.84;84.36;96200.56;4954373;28;20051;-65
2021/09/26 03:11:38;;;;;;;10.93;8.98;;;18.00;79.20;;;16.84;84.37;96211.19;4980917;28;20043;-65
2021/09/26 03:14:03;;;;;;;9.80;8.23;;;18.10;79.30;;;16.84;84.63;96200.56;4979251;28;20098;-65
2021/09/26 03:16:30;;;;;;;10.18;8.20;;;18.00;79.20;;;16.82;84.26;96192.03;4945287;28;20030;-65
2021/09/26 03:18:55;;;;;;;10.93;8.55;;;18.00;79.40;;;16.80;84.15;96197.56;4972070;28;20129;-65
2021/09/26 03:21:21;;;;;;;10.40;8.95;;;18.00;79.30;;;16.80;84.79;96188.78;4962657;28;20197;-65
2021/09/26 03:23:47;;;;;;;10.00;8.52;;;18.00;79.30;;;16.77;84.99;96194.56;4961259;28;20068;-65
2021/09/26 03:26:13;;;;;;;10.82;8.88;;;18.00;79.50;;;16.75;84.58;96197.44;4993718;28;20062;-64
2021/09/26 03:28:38;;;;;;;11.18;8.73;;;17.90;79.40;;;16.75;85.06;96196.63;4998195;28;20057;-64
2021/09/26 03:31:04;;;;;;;11.63;8.65;;;18.00;79.30;;;16.73;84.80;96190.69;4961670;28;20125;-65
2021/09/26 03:33:30;;;;;;;12.68;9.13;;;17.90;79.30;;;16.72;84.64;96186.41;4956215;28;20038;-64
2021/09/26 03:35:56;;;;;;;10.43;8.68;;;17.90;79.30;;;16.69;84.59;96187.69;4976662;28;20041;-65
2021/09/26 03:38:21;;;;;;;12.13;8.90;;;17.90;79.30;;;16.69;84.99;96186.88;4958584;28;20038;-65
2021/09/26 03:40:47;;;;;;;10.68;8.88;;;17.90;79.30;;;16.68;85.18;96185.25;4994676;28;20072;-65
2021/09/26 03:43:13;;;;;;;9.45;7.95;;;17.90;79.30;;;16.67;84.47;96183.63;4978766;28;20536;-65
2021/09/26 03:45:38;;;;;;;10.88;8.65;;;17.90;79.30;;;16.65;84.44;96180.38;4965918;28;20529;-65
2021/09/26 03:48:06;;;;;;;10.40;8.13;;;17.80;79.30;;;16.65;84.74;96180.38;4964502;28;20118;-65
2021/09/26 03:50:31;;;;;;;8.82;7.63;;;17.90;79.30;;;16.65;84.75;96181.19;4968196;28;20084;-65
2021/09/26 03:52:57;;;;;;;10.55;8.07;;;17.90;79.60;;;16.61;84.64;96181.84;4979959;28;20057;-64
2021/09/26 03:55:23;;;;;;;10.48;8.80;;;17.70;79.50;;;16.56;85.04;96181.72;4994980;28;20054;-65
2021/09/26 03:57:49;;;;;;;9.93;8.35;;;17.70;79.70;;;16.52;84.94;96171.56;4981688;28;20123;-64
2021/09/26 04:00:16;;;;;;;12.30;8.15;;;17.70;79.80;;;16.53;85.35;96167.88;4977642;28;20027;-65
2021/09/26 04:02:42;;;;;;;11.93;8.90;;;17.70;79.70;;;16.51;85.47;96164.59;4953219;28;20117;-65
2021/09/26 04:05:08;;;;;;;10.90;8.20;;;17.80;79.70;;;16.50;85.01;96167.47;4970881;28;20041;-66
2021/09/26 04:07:34;;;;;;;11.80;8.25;;;17.70;79.70;;;16.49;85.46;96160.53;4957419;28;20123;-64
2021/09/26 04:09:59;;;;;;;10.23;7.88;;;17.60;79.90;;;16.46;85.05;96161.81;4973682;28;20411;-65
2021/09/26 04:12:25;;;;;;;10.48;8.48;;;17.60;80.10;;;16.44;85.33;96160.41;4988931;28;20472;-65
2021/09/26 04:14:51;;;;;;;9.23;8.32;;;17.60;80.20;;;16.42;84.93;96160.63;5000944;28;20258;-65
2021/09/26 04:17:17;;;;;;;12.07;8.80;;;17.60;80.10;;;16.37;85.22;96152.53;4975162;28;20121;-65
2021/09/26 04:19:42;;;;;;;11.43;8.90;;;17.50;80.20;;;16.36;85.21;96161.53;4990546;28;20050;-65
2021/09/26 04:22:08;;;;;;;10.30;8.50;;;17.50;80.20;;;16.34;85.84;96168.91;4956782;28;20036;-65
2021/09/26 04:24:34;;;;;;;12.23;9.00;;;17.50;80.00;;;16.32;85.18;96154.25;4998360;28;20109;-64
2021/09/26 04:27:00;;;;;;;12.23;9.15;;;17.50;80.10;;;16.31;85.46;96152.63;4977430;28;21796;-64
2021/09/26 04:29:25;;;;;;;11.20;8.57;;;17.50;80.10;;;16.30;85.59;96158.97;4954857;28;20055;-64
2021/09/26 04:31:51;;;;;;;10.43;8.77;;;17.50;80.10;;;16.27;85.13;96156.75;4973186;28;20489;-64
2021/09/26 04:34:17;;;;;;;12.00;8.70;;;17.50;80.00;;;16.25;85.52;96156.97;4972155;28;20039;-65
2021/09/26 04:36:43;;;;;;;10.73;8.50;;;17.50;80.10;;;16.22;85.73;96157.41;4955872;28;21308;-64
2021/09/26 04:39:08;;;;;;;10.85;9.15;;;17.40;80.20;;;16.19;85.44;96161.31;4978557;28;20133;-65
2021/09/26 04:41:34;;;;;;;10.77;9.60;;;17.40;80.30;;;16.18;85.71;96153.59;4956435;28;20062;-65
2021/09/26 04:44:00;;;;;;;11.05;9.88;;;17.40;80.30;;;16.15;86.34;96154.03;4977662;28;20123;-66
2021/09/26 04:46:26;;;;;;;11.32;9.93;;;17.40;80.30;;;16.12;85.69;96155.31;4980962;28;20038;-65
2021/09/26 04:48:51;;;;;;;11.93;8.85;;;17.30;80.40;;;16.08;86.54;96155.97;4973484;28;20062;-64
2021/09/26 04:51:17;;;;;;;12.00;9.82;;;17.30;80.40;;;16.05;86.05;96148.44;4964377;28;20165;-65
2021/09/26 04:53:43;;;;;;;12.05;9.05;;;17.20;80.50;;;16.02;85.69;96143.56;5008650;28;20159;-64
2021/09/26 04:56:08;;;;;;;11.18;9.57;;;17.20;80.50;;;15.99;86.91;96144.00;4980390;28;20038;-65
2021/09/26 04:58:34;;;;;;;11.82;9.65;;;17.20;80.60;;;15.96;86.57;96144.47;4960696;28;20046;-64
2021/09/26 05:01:00;;;;;;;11.68;9.00;;;17.10;80.60;;;15.93;86.92;96146.53;4969096;28;20056;-64
2021/09/26 05:03:26;;;;;;;11.48;9.60;;;17.10;80.70;;;15.90;86.63;96149.63;4970309;28;20066;-64
2021/09/26 05:05:51;;;;;;;10.35;8.40;;;17.10;80.60;;;15.87;87.15;96146.59;4996436;28;20066;-65
2021/09/26 05:08:17;;;;;;;11.13;9.20;;;17.10;80.70;;;15.82;86.92;96149.91;4965704;28;20447;-64
2021/09/26 05:10:43;;;;;;;11.68;8.90;;;17.10;80.70;;;15.81;87.30;96158.88;4983598;28;20849;-64
2021/09/26 05:13:09;;;;;;;35.00;29.30;;;17.00;80.70;;;15.78;87.21;96154.03;4989003;28;20525;-64
2021/09/26 05:15:34;;;;;;;21.25;18.70;;;17.00;80.70;;;15.76;86.26;96156.09;4962213;28;20100;-64
2021/09/26 05:18:01;;;;;;;17.73;14.55;;;17.00;80.80;;;15.76;87.23;96150.78;4982695;28;20116;-65
2021/09/26 05:20:26;;;;;;;12.13;10.68;;;17.10;80.90;;;15.75;86.53;96151.81;5001903;28;20029;-64
2021/09/26 05:22:53;;;;;;;10.27;8.75;;;17.00;80.90;;;15.74;87.48;96147.53;4978065;28;20163;-65
2021/09/26 05:25:18;;;;;;;10.23;8.05;;;17.00;80.90;;;15.72;86.80;96143.50;4979164;28;20061;-65
2021/09/26 05:27:44;;;;;;;12.80;8.02;;;17.00;81.10;;;15.71;87.72;96148.00;4975566;28;20132;-66
2021/09/26 05:30:11;;;;;;;8.93;7.53;;;17.00;81.10;;;15.71;87.90;96152.47;4945029;28;20466;-69
2021/09/26 05:32:37;;;;;;;10.43;7.50;;;17.00;81.10;;;15.69;87.10;96150.06;4953734;28;20044;-68
2021/09/26 05:35:03;;;;;;;10.65;7.43;;;17.00;81.10;;;15.71;86.80;96155.13;4976728;28;20413;-68
2021/09/26 05:37:29;;;;;;;19.88;16.52;;;17.10;80.90;;;15.71;87.04;96161.25;4968703;28;20054;-68
2021/09/26 05:39:54;;;;;;;44.42;37.58;;;17.00;80.80;;;15.73;87.81;96161.03;4956431;28;20037;-68
2021/09/26 05:42:20;;;;;;;13.13;10.60;;;17.10;80.70;;;15.73;87.76;96177.75;4958137;28;20058;-64
2021/09/26 05:44:46;;;;;;;11.38;9.27;;;17.10;80.80;;;15.76;87.43;96173.84;4980254;28;20550;-64
2021/09/26 05:47:14;;;;;;;10.90;9.30;;;17.10;80.70;;;15.77;87.87;96168.31;4957008;28;20061;-64
2021/09/26 05:49:40;;;;;;;15.35;12.63;;;17.10;80.80;;;15.79;87.14;96166.25;4972736;28;20125;-64
2021/09/26 05:52:07;;;;;;;10.32;8.77;;;17.10;80.70;;;15.83;87.75;96167.44;4954994;28;20039;-65
2021/09/26 05:54:35;;;;;;;9.27;8.00;;;17.20;80.60;;;15.86;87.15;96167.03;4956367;28;20042;-64
2021/09/26 05:57:01;;;;;;;10.98;8.00;;;17.20;80.70;;;15.89;88.18;96166.56;4976278;28;20040;-64
2021/09/26 05:59:27;;;;;;;15.98;11.18;;;17.30;80.50;;;15.92;88.05;96165.31;4975536;28;20053;-65
2021/09/26 06:01:52;;;;;;;11.93;10.30;;;17.30;80.40;;;15.93;87.37;96162.44;4987323;28;20089;-66
2021/09/26 06:04:18;;;;;;;12.52;11.32;;;17.30;80.30;;;15.98;87.67;96151.16;4972534;28;20454;-66
2021/09/26 06:06:44;;;;;;;10.32;8.77;;;17.40;80.00;;;16.01;87.92;96158.69;4989131;28;20034;-65
2021/09/26 06:09:09;;;;;;;12.23;7.47;;;17.40;79.90;;;16.05;87.78;96164.34;4985680;28;20043;-65
2021/09/26 06:11:35;;;;;;;8.75;7.00;;;17.50;79.90;;;16.08;87.69;96163.94;4956409;28;20665;-65
2021/09/26 06:14:01;;;;;;;9.27;6.75;;;17.60;79.90;;;16.14;87.18;96157.72;4968715;28;20584;-66
2021/09/26 06:16:27;;;;;;;10.15;7.22;;;17.60;79.80;;;16.16;86.95;96168.94;4947792;28;20034;-65
2021/09/26 06:18:52;;;;;;;7.85;6.38;;;17.60;79.70;;;16.17;86.59;96163.41;4988679;28;20528;-65
2021/09/26 06:21:18;;;;;;;32.22;25.75;;;17.60;79.60;;;16.17;86.83;96167.91;4988800;28;20034;-65
2021/09/26 06:23:44;;;;;;;19.92;16.67;;;17.60;79.50;;;16.17;86.57;96171.34;4984825;28;20069;-65
2021/09/26 06:26:10;;;;;;;12.93;9.68;;;17.60;79.40;;;16.18;86.35;96158.91;4963541;28;20065;-65
2021/09/26 06:28:35;;;;;;;9.02;7.60;;;17.60;79.40;;;16.21;86.83;96169.06;4986685;28;20059;-65
2021/09/26 06:31:01;;;;;;;7.03;6.15;;;17.60;79.30;;;16.22;86.95;96160.88;4967717;28;20133;-66
2021/09/26 06:33:27;;;;;;;8.35;7.10;;;17.70;78.80;;;16.23;86.33;96177.63;4954531;28;20948;-66
2021/09/26 06:35:53;;;;;;;8.32;6.82;;;17.60;79.00;;;16.25;85.85;96178.19;4971543;28;20061;-65
2021/09/26 06:38:19;;;;;;;9.13;7.10;;;17.70;78.90;;;16.26;86.21;96177.16;4956224;28;20034;-64
2021/09/26 06:40:44;;;;;;;8.05;6.32;;;17.70;78.60;;;16.29;85.53;96179.38;4989696;28;20605;-70
2021/09/26 06:43:12;;;;;;;8.95;5.80;;;17.80;78.30;;;16.31;85.80;96177.34;4954308;28;20085;-70
2021/09/26 06:45:39;;;;;;;7.40;5.82;;;17.90;78.20;;;16.40;85.46;96183.94;4956032;28;20133;-71
2021/09/26 06:48:04;;;;;;;7.45;6.18;;;18.10;77.70;;;16.48;85.18;96191.59;4969520;28;20035;-71
2021/09/26 06:50:30;;;;;;;7.80;6.00;;;18.10;77.30;;;16.58;85.17;96190.28;4953100;28;20521;-70
2021/09/26 06:52:56;;;;;;;6.22;5.63;;;18.30;77.00;;;16.69;85.37;96186.88;4946059;28;20406;-69
2021/09/26 06:55:22;;;;;;;7.20;5.45;;;18.50;76.80;;;16.80;85.36;96178.16;4962539;28;20048;-71
2021/09/26 06:57:47;;;;;;;8.75;5.53;;;18.60;76.40;;;16.93;85.24;96177.94;4971807;28;20729;-69
2021/09/26 07:00:14;;;;;;;6.60;5.15;;;18.80;75.90;;;17.07;85.11;96179.38;4954702;28;20069;-67
2021/09/26 07:02:42;;;;;;;6.65;5.22;;;19.00;75.60;;;17.21;84.74;96160.59;4962677;28;20038;-69
2021/09/26 07:05:08;;;;;;;7.72;5.25;;;19.10;75.50;;;17.36;84.56;96160.94;4976246;28;20580;-68
2021/09/26 07:07:34;;;;;;;5.50;4.63;;;19.40;74.70;;;17.53;84.10;96161.88;4958210;28;20035;-66
2021/09/26 07:10:00;;;;;;;7.60;4.88;;;19.50;74.20;;;17.69;84.07;96155.91;4976470;28;20096;-66
2021/09/26 07:12:25;;;;;;;8.13;5.03;;;19.70;73.30;;;17.88;83.71;96158.41;4972515;28;20125;-65
2021/09/26 07:14:51;;;;;;;5.75;4.85;;;20.00;73.10;;;18.06;82.61;96171.59;4975815;28;20041;-70
2021/09/26 07:17:19;;;;;;;5.15;4.63;;;20.10;71.70;;;18.24;82.82;96168.78;4959538;28;20065;-70
2021/09/26 07:19:45;;;;;;;8.23;4.82;;;20.40;71.30;;;18.45;81.63;96169.19;4959914;28;20477;-66
2021/09/26 07:22:11;;;;;;;7.47;4.80;;;20.60;70.70;;;18.66;80.99;96169.38;4957106;28;20030;-65
2021/09/26 07:24:36;;;;;;;5.80;4.82;;;21.00;70.10;;;18.86;80.90;96166.28;4973061;28;20027;-65
2021/09/26 07:27:02;;;;;;;7.55;4.50;;;21.30;68.70;;;19.05;80.07;96168.75;4958348;28;20062;-72
2021/09/26 07:29:28;;;;;;;6.10;4.40;;;21.50;66.90;;;19.23;79.37;96171.16;4973599;28;20046;-67
2021/09/26 07:31:54;;;;;;;9.38;4.40;;;21.80;66.10;;;19.45;78.37;96168.59;4985777;28;20050;-68
2021/09/26 07:34:19;;;;;;;7.88;4.70;;;22.30;65.20;;;19.67;78.33;96171.34;4983673;28;20061;-66
2021/09/26 07:36:45;;;;;;;44.35;30.25;;;22.50;63.80;;;19.88;77.05;96162.59;4975623;28;20037;-67
2021/09/26 07:39:11;;;;;;;36.13;26.92;;;22.80;62.60;;;20.11;76.86;96161.56;4960000;28;20117;-67
2021/09/26 07:41:37;;;;;;;9.43;6.45;;;23.10;62.80;;;20.33;75.68;96159.72;4991175;28;20038;-67
2021/09/26 07:44:02;;;;;;;8.18;4.40;;;23.40;61.50;;;20.55;75.72;96157.06;4975497;28;20118;-67
2021/09/26 07:46:28;;;;;;;6.32;4.18;;;23.60;60.50;;;20.78;75.29;96150.63;4975880;28;20038;-67
2021/09/26 07:48:54;;;;;;;6.75;4.05;;;23.90;59.70;;;21.03;74.07;96152.72;4992023;28;20038;-67
2021/09/26 07:51:20;;;;;;;5.00;3.95;;;24.20;58.80;;;21.27;73.71;96156.72;4990832;28;20078;-66
2021/09/26 07:53:45;;;;;;;4.78;3.78;;;24.50;58.20;;;21.48;72.28;96154.22;4956134;28;20106;-67
2021/09/26 07:56:11;;;;;;;6.00;3.50;;;24.60;56.50;;;21.68;71.31;96159.72;4972005;28;20410;-67
2021/09/26 07:58:37;;;;;;;9.05;3.58;;;24.90;55.60;;;21.88;70.10;96162.53;4956278;28;20031;-67
2021/09/26 08:01:03;;;;;;;5.45;3.22;;;25.00;54.30;;;22.06;69.87;96160.53;4958677;28;20120;-67
2021/09/26 08:03:28;;;;;;;5.38;3.38;;;25.10;54.30;;;22.23;68.68;96159.28;4981929;28;20031;-67
2021/09/26 08:05:55;;;;;;;4.72;3.10;;;25.40;53.30;;;22.39;68.01;96154.78;4968368;28;20035;-67
2021/09/26 08:08:22;;;;;;;6.07;3.00;;;25.30;53.40;;;22.48;67.71;96153.22;4971889;28;20109;-67
2021/09/26 08:10:48;;;;;;;5.50;3.25;;;25.10;55.10;;;22.45;68.69;96148.38;4971985;28;20039;-67
2021/09/26 08:13:14;;;;;;;4.65;3.28;;;24.70;56.50;;;22.45;67.73;96140.34;4987878;28;20114;-67
2021/09/26 08:15:40;;;;;;;5.65;3.50;;;24.80;55.90;;;22.47;67.47;96146.25;4985043;28;20045;-67
2021/09/26 08:18:06;;;;;;;5.95;3.42;;;24.90;55.80;;;22.58;66.83;96139.84;4992764;28;20088;-68
2021/09/26 08:20:32;;;;;;;5.85;2.60;;;25.30;55.20;;;22.77;66.48;96150.06;4991262;28;20062;-68
2021/09/26 08:22:57;;;;;;;5.65;3.33;;;25.70;54.20;;;22.96;66.50;96140.50;4990959;28;20076;-67
2021/09/26 08:25:23;;;;;;;6.10;2.97;;;26.00;52.90;;;23.22;66.22;96144.81;4955125;28;20061;-67
2021/09/26 08:27:50;;;;;;;9.32;2.97;;;26.50;52.00;;;23.49;64.92;96133.78;4949975;28;20089;-67
2021/09/26 08:30:18;;;;;;;6.47;2.90;;;26.80;50.80;;;23.74;64.18;96135.66;4990698;28;20041;-68
2021/09/26 08:32:43;;;;;;;5.22;2.85;;;27.10;49.50;;;24.03;64.23;96137.78;4974164;28;20026;-67
2021/09/26 08:39:34;;;;;;;;;;;27.90;48.70;;;24.83;59.50;96135.84;4967327;28;20125;-68
2021/09/26 08:59:47;;;;;;;5.38;2.83;;;30.70;41.60;;;27.35;53.07;96140.75;4642433;30;20258;-69
2021/09/26 09:02:36;;;;;;;12.35;8.32;;;30.20;42.60;;;27.30;52.70;96148.94;4641082;30;20042;-67
2021/09/26 09:06:52;;;;;;;9.85;5.65;;;29.80;43.70;;;27.16;51.33;96150.78;4662481;30;20552;-68
2021/09/26 09:10:19;;;;;;;11.48;2.67;;;29.60;42.90;;;26.85;50.49;96145.78;4774361;29;20094;-68
2021/09/26 09:13:45;;;;;;;8.63;2.67;;;29.00;42.90;;;26.69;52.86;96147.06;4746905;29;20049;-67
2021/09/26 09:17:05;;;;;;;10.85;4.20;;;28.70;44.90;;;26.55;51.96;96144.28;4856888;29;20131;-73
2021/09/26 09:47:38;;;;;;;4.07;2.65;;;27.60;46.60;;;25.56;54.34;96157.41;4904129;29;20150;-67
2021/09/26 09:50:23;;;;;;;5.78;2.65;;;27.40;48.70;;;25.52;54.89;96156.38;4904598;29;20773;-67
2021/09/26 10:09:46;;;;;;;7.95;3.17;;;28.20;45.80;;;26.51;52.04;96150.56;4781568;29;20153;-65
2021/09/26 10:13:46;;;;;;;5.70;2.60;;;31.50;39.60;;;27.48;50.39;96147.28;4776513;29;20070;-65
2021/09/26 10:29:29;;;;;;;;;;;;;;;;;;;;;
2021/09/26 10:32:37;;;;;;;6.00;2.58;;;33.00;35.70;;;29.64;44.69;96163.25;4734941;30;20059;-70
2021/09/26 10:39:29;;;;;;;5.20;2.47;;;31.50;38.90;;;29.00;45.35;96169.91;4783537;29;20482;-66
2021/09/26 10:46:40;;;;;;;6.37;2.40;;;30.20;40.50;;;28.16;45.38;96173.72;4806105;29;20441;-65
2021/09/26 11:01:16;;;;;;;5.35;2.58;;;30.10;40.10;;;27.65;47.61;96166.50;4794811;29;20437;-69
2021/09/26 11:08:39;;;;;;;6.50;2.30;;;29.50;44.50;;;27.44;48.95;96160.59;4798158;29;20077;-65
2021/09/26 11:15:31;;;;;;;28.88;22.67;;;29.50;43.00;;;27.49;47.76;96148.91;4748753;29;20070;-66
2021/09/26 11:19:15;;;;;;;7.70;2.97;;;29.90;41.90;;;27.81;47.08;96150.81;4866887;29;20081;-65
2021/09/26 11:22:20;;;;;;;8.00;2.83;;;30.60;40.70;;;28.64;46.65;96140.84;4866495;29;20084;-66
2021/09/26 11:33:08;;;;;;;5.05;1.95;;;35.70;32.70;;;32.33;39.55;96118.25;4876023;29;20388;-73
2021/09/26 11:36:19;;;;;;;12.88;3.08;;;37.50;29.40;;;33.49;39.10;96121.16;4871974;29;20037;-65
2021/09/26 11:43:27;;;;;;;;;;;;;;;;;;;;;
2021/09/26 11:46:42;;;;;;;;;;;;;;;;;;;;;
2021/09/26 11:53:40;;;;;;;6.72;2.20;;;40.80;26.10;;;37.76;32.95;96104.75;5020794;28;20043;-65
2021/09/26 11:57:04;;;;;;;5.95;2.30;;;41.20;26.00;;;38.45;31.25;96091.81;5011726;28;20041;-65
2021/09/26 12:02:52;;;;;;;6.72;2.67;;;42.00;25.00;;;39.36;33.06;96077.78;5034685;28;20044;-66
2021/09/26 12:05:58;;;;;;;5.57;2.33;;;41.70;24.50;;;39.54;28.33;96075.25;5023775;28;20024;-66
2021/09/26 12:09:17;;;;;;;5.93;2.60;;;41.80;24.20;;;39.81;29.02;96073.16;4952547;28;20471;-65
2021/09/26 12:11:54;;;;;;;7.35;2.40;;;42.00;24.50;;;40.07;27.53;96069.53;4967497;28;20569;-66
2021/09/26 12:14:35;;;;;;;10.10;2.63;;;42.10;24.00;;;40.34;28.01;96068.16;4952282;28;20598;-66
2021/09/26 12:17:26;;;;;;;;;;;;;;;;;;;;;
2021/09/26 12:20:10;;;;;;;4.43;2.05;;;42.20;23.70;;;40.52;27.04;96062.78;5013126;28;20041;-68
2021/09/26 12:28:20;;;;;;;;;;;;;;;;;;;;;
2021/09/26 12:31:37;;;;;;;;;;;;;;;;;;;;;
2021/09/26 12:49:48;;;;;;;;;;;;;;;;;;;;;
2021/09/26 13:20:11;;;;;;;9.40;2.90;;;33.20;35.50;;;31.84;36.03;96058.72;4595139;30;20055;-66
2021/09/26 13:57:11;;;;;;;9.30;3.00;;;31.50;39.60;;;30.24;40.92;96027.13;4841973;29;20050;-65
2021/09/26 14:04:20;;;;;;;7.97;2.97;;;30.70;42.80;;;29.63;41.52;96017.97;4835864;29;20150;-67
2021/09/26 14:07:46;;;;;;;;;;;;;;;;;;;;;
2021/09/26 14:19:21;;;;;;;7.90;3.30;;;30.20;42.40;;;28.95;44.11;96011.81;4803465;29;20046;-70
2021/09/26 14:26:30;;;;;;;6.60;3.13;;;30.10;44.10;;;28.64;44.23;96021.75;4783696;29;20077;-68
2021/09/26 14:30:10;;;;;;;8.30;3.70;;;29.60;43.40;;;28.43;45.49;96009.78;4749207;29;20512;-67
2021/09/26 14:42:14;;;;;;;;;;;;;;;;;;;;;
2021/09/26 14:45:14;;;;;;;9.30;4.40;;;28.30;47.60;;;27.36;48.03;96003.78;4774223;29;20042;-67
2021/09/26 14:59:31;;;;;;;8.30;5.80;;;27.40;51.40;;;26.53;51.60;96016.19;4834748;29;20054;-67
2021/09/26 15:02:29;;;;;;;10.02;5.80;;;27.20;52.40;;;26.35;50.94;96020.47;4799940;29;20043;-70
2021/09/26 15:16:10;;;;;;;11.45;6.80;;;26.60;51.40;;;25.79;50.86;96028.44;4773720;29;20551;-67